Rapid City, SD (57701)

3:40 PM MDT on September 16, 2014 (GMT -0600)
KSDKYLE1 | Change Station
CLOSE
Current Station
Personal Weather Station
Location: Rapid City, SD
Elevation: 3251 ft
Nearby Weather Stations

Elev 3251 ft 44.06 °N, 103.20 °W | Updated 12 minutes ago

Clear
Clear
78.6 °F
Feels Like 78 °F
N
2.0
Wind Variable Wind from ESE
Gusts 8.0 mph

Today
High -- | Low -- °F
--% Chance of Precip.
Yesterday
High -- | Low -- °F
Precip. -- in
6:33 AM 7:01 PM
Last Quarter, 42% visible
Pressure 29.93 in
Visibility 10.0 miles
Clouds Clear
Heat Index 78 °F
Dew Point 44 °F
Humidity 29%
Rainfall 0.00 in
Snow Depth 0 in
UV 5 out of 12
Pollen 5.80 out of 12
Air Quality Not available.
Flu Activity Not available.
METAR KRAP 162052Z 14005KT 10SM CLR 27/07 A2997 RMK AO2 SLP135 T02670067 58014

More Conditions Fewer Conditions

Pressure 29.93 in
Visibility 10.0 miles
Clouds Clear
Heat Index 78 °F
Dew Point 44 °F
Humidity 29%
Rainfall 0.00 in
Snow Depth 0 in
UV 5 out of 12
Pollen 5.80 out of 12
Air Quality Not available.
Flu Activity Not available.
METAR KRAP 162052Z 14005KT 10SM CLR 27/07 A2997 RMK AO2 SLP135 T02670067 58014

More Conditions Fewer Conditions

10-Day Weather Forecast

Almanac

Astronomy

Sep. 16, 2014 Rise Set
Actual Time 6:33 AM MDT 7:01 PM MDT
Civil Twilight 6:04 AM MDT 7:30 PM MDT
Nautical Twilight 5:29 AM MDT 8:04 PM MDT
Astronomical Twilight 4:54 AM MDT 8:39 PM MDT
Moon No Moon Rise 2:35 PM MDT
Length of Visible Light 13h 26m
Length of Day
12h 28m
Tomorrow will be 2m 59s shorter.
Last Quarter, 42% of the Moon is Illuminated
Today
Last Quarter
Sep 24
New
Oct 1
First Quarter
Oct 8
Full
Oct 15
Last Quarter

Today's Extremes

State Highs State Lows

Community

WunderPhotos

Upload Photos

1,753,895 photos uploaded!

Nearby

Snow Depth

Station Depth Elevation
Blind Park 0 in 6890 ft

Earthquake Activity

City Distance Mag. Time & Date
No recent earthquake activity has been reported nearby.
Minimum magnitude displayed is 2.5.

Coastal Water Temperatures

Place Temperature
No Stations Reporting

Nearby Weather Stations